This is the latest recevied weather packets stored in our database for station/object CE4TQY-10. If no packets are shown the sender has not sent any weather packets the latest 10 day(s).
| Time | Temp. | Humidity | Pressure | Rain* | Wind** | Luminosity | Snow |
|---|---|---|---|---|---|---|---|
| 1778098103 | 14.44° C | 86% | 1020.9 hPa | - | - | - | - |
| 1778097202 | 15° C | 86% | 1020.8 hPa | - | - | - | - |
| 1778096301 | 15° C | 86% | 1021.1 hPa | - | - | - | - |
| 1778095400 | 14.44° C | 86% | 1021 hPa | - | - | - | - |
| 1778094500 | 14.44° C | 86% | 1020.9 hPa | - | - | - | - |
| 1778093599 | 14.44° C | 86% | 1020.8 hPa | - | - | - | - |
| 1778092698 | 13.89° C | 86% | 1020.7 hPa | - | - | - | - |
| 1778091797 | 13.89° C | 86% | 1020.6 hPa | - | - | - | - |
| 1778090896 | 14.44° C | 86% | 1020.5 hPa | - | - | - | - |
| 1778089995 | 13.89° C | 87% | 1020.4 hPa | - | - | - | - |
| 1778089094 | 13.33° C | 87% | 1020.4 hPa | - | - | - | - |
| 1778088193 | 13.33° C | 87% | 1020.2 hPa | - | - | - | - |
| 1778087292 | 13.33° C | 86% | 1020.4 hPa | - | - | - | - |
| 1778086391 | 13.33° C | 85% | 1020.2 hPa | - | - | - | - |
| 1778085489 | 13.33° C | 83% | 1019.9 hPa | - | - | - | - |
| 1778084588 | 13.33° C | 81% | 1020 hPa | - | - | - | - |
| 1778083688 | 13.89° C | 78% | 1019.8 hPa | - | - | - | - |
| 1778082787 | 13.89° C | 77% | 1019.8 hPa | - | - | - | - |
| 1778081886 | 14.44° C | 74% | 1019.7 hPa | - | - | - | - |
| 1778080985 | 15° C | 67% | 1019.2 hPa | - | - | - | - |
| 1778080084 | 15.56° C | 65% | 1019.5 hPa | - | - | - | - |
| 1778079183 | 15° C | 69% | 1019.2 hPa | - | - | - | - |
| 1778078282 | 16.11° C | 64% | 1018.8 hPa | - | - | - | - |
| 1778077381 | 16.67° C | 60% | 1018.2 hPa | - | - | - | - |
| 1778076480 | 16.67° C | 61% | 1018.2 hPa | - | - | - | - |
* Rain since midnight (hover to see other rain measurements)
** Current wind speed in m/s (hover to see current wind gust speed)